sensor_id;sensor_type;location;lat;lon;timestamp;pressure;altitude;pressure_sealevel;temperature;humidity
43115;BME280;28727;50.068;14.452;2022-11-15T00:02:43;99468.09;;;4.93;79.80
43115;BME280;28727;50.068;14.452;2022-11-15T00:05:35;99462.97;;;4.92;80.10
43115;BME280;28727;50.068;14.452;2022-11-15T00:08:29;99462.28;;;4.90;79.76
43115;BME280;28727;50.068;14.452;2022-11-15T00:11:19;99455.53;;;4.87;79.74
43115;BME280;28727;50.068;14.452;2022-11-15T00:14:10;99457.44;;;4.85;79.14
43115;BME280;28727;50.068;14.452;2022-11-15T00:17:00;99447.91;;;4.84;79.36
43115;BME280;28727;50.068;14.452;2022-11-15T00:19:50;99457.84;;;4.81;79.31
43115;BME280;28727;50.068;14.452;2022-11-15T00:22:43;99449.41;;;4.77;78.86
43115;BME280;28727;50.068;14.452;2022-11-15T00:25:33;99462.47;;;4.77;78.80
43115;BME280;28727;50.068;14.452;2022-11-15T00:28:24;99460.13;;;4.74;78.97
43115;BME280;28727;50.068;14.452;2022-11-15T00:31:14;99462.31;;;4.69;78.67
43115;BME280;28727;50.068;14.452;2022-11-15T00:34:05;99453.63;;;4.69;78.83
43115;BME280;28727;50.068;14.452;2022-11-15T00:36:55;99459.38;;;4.63;78.84
43115;BME280;28727;50.068;14.452;2022-11-15T00:39:46;99463.34;;;4.57;79.03
43115;BME280;28727;50.068;14.452;2022-11-15T00:42:35;99458.94;;;4.58;79.01
43115;BME280;28727;50.068;14.452;2022-11-15T00:45:26;99460.41;;;4.50;78.99
43115;BME280;28727;50.068;14.452;2022-11-15T00:48:18;99468.19;;;4.41;79.49
43115;BME280;28727;50.068;14.452;2022-11-15T00:51:08;99460.53;;;4.28;80.08
43115;BME280;28727;50.068;14.452;2022-11-15T00:53:59;99454.69;;;4.25;80.79
43115;BME280;28727;50.068;14.452;2022-11-15T00:56:49;99457.25;;;4.15;81.41
43115;BME280;28727;50.068;14.452;2022-11-15T00:59:39;99458.91;;;4.16;82.10
43115;BME280;28727;50.068;14.452;2022-11-15T01:02:30;99457.00;;;4.18;83.04
43115;BME280;28727;50.068;14.452;2022-11-15T01:05:23;99457.69;;;4.20;83.30
43115;BME280;28727;50.068;14.452;2022-11-15T01:08:16;99453.50;;;4.29;84.11
43115;BME280;28727;50.068;14.452;2022-11-15T01:11:09;99451.66;;;4.40;84.36
43115;BME280;28727;50.068;14.452;2022-11-15T01:13:59;99439.88;;;4.46;84.05
43115;BME280;28727;50.068;14.452;2022-11-15T01:16:49;99436.63;;;4.53;84.43
43115;BME280;28727;50.068;14.452;2022-11-15T01:19:39;99436.34;;;4.57;84.03
43115;BME280;28727;50.068;14.452;2022-11-15T01:22:30;99433.72;;;4.57;84.42
43115;BME280;28727;50.068;14.452;2022-11-15T01:25:23;99440.94;;;4.64;84.89
43115;BME280;28727;50.068;14.452;2022-11-15T01:28:13;99435.88;;;4.72;85.21
43115;BME280;28727;50.068;14.452;2022-11-15T01:31:08;99433.00;;;4.75;84.56
43115;BME280;28727;50.068;14.452;2022-11-15T01:33:59;99444.25;;;4.66;84.82
43115;BME280;28727;50.068;14.452;2022-11-15T01:36:49;99439.41;;;4.62;85.65
43115;BME280;28727;50.068;14.452;2022-11-15T01:39:40;99440.13;;;4.64;85.72
43115;BME280;28727;50.068;14.452;2022-11-15T01:42:33;99434.38;;;4.70;86.00
43115;BME280;28727;50.068;14.452;2022-11-15T01:45:23;99423.06;;;4.69;85.90
43115;BME280;28727;50.068;14.452;2022-11-15T01:48:13;99420.19;;;4.72;87.02
43115;BME280;28727;50.068;14.452;2022-11-15T01:51:07;99421.31;;;4.79;87.02
43115;BME280;28727;50.068;14.452;2022-11-15T01:54:03;99418.47;;;4.82;86.46
43115;BME280;28727;50.068;14.452;2022-11-15T01:57:14;99433.44;;;4.80;86.71
43115;BME280;28727;50.068;14.452;2022-11-15T02:00:06;99429.19;;;4.89;86.83
43115;BME280;28727;50.068;14.452;2022-11-15T02:02:57;99426.78;;;4.97;86.84
43115;BME280;28727;50.068;14.452;2022-11-15T02:05:47;99426.13;;;5.05;86.07
43115;BME280;28727;50.068;14.452;2022-11-15T02:08:37;99427.50;;;5.09;86.73
43115;BME280;28727;50.068;14.452;2022-11-15T02:11:28;99419.97;;;5.15;86.33
43115;BME280;28727;50.068;14.452;2022-11-15T02:14:19;99429.19;;;5.19;86.03
43115;BME280;28727;50.068;14.452;2022-11-15T02:41:53;99401.75;;;5.14;84.61
43115;BME280;28727;50.068;14.452;2022-11-15T02:44:45;99401.63;;;5.15;85.26
43115;BME280;28727;50.068;14.452;2022-11-15T02:47:42;99408.94;;;5.21;85.12
43115;BME280;28727;50.068;14.452;2022-11-15T02:50:33;99402.34;;;5.27;84.91
43115;BME280;28727;50.068;14.452;2022-11-15T02:53:25;99404.72;;;5.30;84.67
43115;BME280;28727;50.068;14.452;2022-11-15T02:56:15;99416.69;;;5.32;84.32
43115;BME280;28727;50.068;14.452;2022-11-15T02:59:25;99416.81;;;5.21;85.02
43115;BME280;28727;50.068;14.452;2022-11-15T03:02:49;99411.75;;;5.29;85.02
43115;BME280;28727;50.068;14.452;2022-11-15T03:09:02;99406.75;;;5.26;84.25
43115;BME280;28727;50.068;14.452;2022-11-15T03:15:17;99385.94;;;5.25;85.35
43115;BME280;28727;50.068;14.452;2022-11-15T03:18:19;99385.28;;;5.32;85.14
43115;BME280;28727;50.068;14.452;2022-11-15T03:21:13;99379.63;;;5.37;84.82
43115;BME280;28727;50.068;14.452;2022-11-15T03:24:08;99377.72;;;5.39;84.42
43115;BME280;28727;50.068;14.452;2022-11-15T03:27:03;99379.63;;;5.37;84.65
43115;BME280;28727;50.068;14.452;2022-11-15T03:29:59;99375.09;;;5.29;84.09
43115;BME280;28727;50.068;14.452;2022-11-15T03:32:54;99370.22;;;5.25;84.87
43115;BME280;28727;50.068;14.452;2022-11-15T03:35:46;99374.63;;;5.24;85.01
43115;BME280;28727;50.068;14.452;2022-11-15T03:38:38;99367.06;;;5.21;85.10
43115;BME280;28727;50.068;14.452;2022-11-15T03:41:42;99370.50;;;5.12;85.29
43115;BME280;28727;50.068;14.452;2022-11-15T03:44:40;99368.25;;;5.08;85.65
43115;BME280;28727;50.068;14.452;2022-11-15T03:48:02;99353.38;;;5.08;86.19
43115;BME280;28727;50.068;14.452;2022-11-15T03:50:55;99360.56;;;5.06;86.14
43115;BME280;28727;50.068;14.452;2022-11-15T03:53:45;99363.28;;;5.05;85.78
43115;BME280;28727;50.068;14.452;2022-11-15T03:56:36;99358.84;;;4.95;86.49
43115;BME280;28727;50.068;14.452;2022-11-15T03:59:26;99360.78;;;4.93;86.60
43115;BME280;28727;50.068;14.452;2022-11-15T04:02:16;99356.09;;;4.97;86.60
43115;BME280;28727;50.068;14.452;2022-11-15T04:05:10;99354.59;;;4.94;86.81
43115;BME280;28727;50.068;14.452;2022-11-15T04:08:00;99362.28;;;4.96;86.71
43115;BME280;28727;50.068;14.452;2022-11-15T04:10:51;99354.31;;;4.98;86.87
43115;BME280;28727;50.068;14.452;2022-11-15T04:13:41;99349.91;;;4.98;87.11
43115;BME280;28727;50.068;14.452;2022-11-15T04:16:31;99341.34;;;4.96;86.88
43115;BME280;28727;50.068;14.452;2022-11-15T04:19:21;99344.94;;;4.95;86.73
43115;BME280;28727;50.068;14.452;2022-11-15T04:22:30;99338.06;;;4.94;87.01
43115;BME280;28727;50.068;14.452;2022-11-15T04:25:39;99338.31;;;4.91;86.83
43115;BME280;28727;50.068;14.452;2022-11-15T04:28:29;99349.38;;;4.94;87.15
43115;BME280;28727;50.068;14.452;2022-11-15T04:31:19;99341.63;;;4.93;86.70
43115;BME280;28727;50.068;14.452;2022-11-15T04:34:10;99340.81;;;4.92;87.18
43115;BME280;28727;50.068;14.452;2022-11-15T04:37:01;99339.84;;;4.93;87.28
43115;BME280;28727;50.068;14.452;2022-11-15T04:40:04;99340.94;;;4.91;87.35
43115;BME280;28727;50.068;14.452;2022-11-15T04:42:55;99346.75;;;4.94;87.23
43115;BME280;28727;50.068;14.452;2022-11-15T04:45:52;99349.09;;;4.98;87.07
43115;BME280;28727;50.068;14.452;2022-11-15T04:48:43;99342.19;;;4.97;87.24
43115;BME280;28727;50.068;14.452;2022-11-15T04:51:33;99344.69;;;4.98;87.56
43115;BME280;28727;50.068;14.452;2022-11-15T04:54:23;99341.94;;;5.00;87.70
43115;BME280;28727;50.068;14.452;2022-11-15T04:57:14;99337.94;;;5.05;87.71
43115;BME280;28727;50.068;14.452;2022-11-15T05:00:07;99341.13;;;5.09;87.52
43115;BME280;28727;50.068;14.452;2022-11-15T05:02:57;99342.34;;;5.05;87.40
43115;BME280;28727;50.068;14.452;2022-11-15T05:06:06;99343.72;;;4.99;87.24
43115;BME280;28727;50.068;14.452;2022-11-15T05:08:57;99349.38;;;4.94;87.13
43115;BME280;28727;50.068;14.452;2022-11-15T05:11:47;99350.44;;;4.92;87.57
43115;BME280;28727;50.068;14.452;2022-11-15T05:14:37;99349.19;;;4.96;87.81
43115;BME280;28727;50.068;14.452;2022-11-15T05:17:28;99340.28;;;4.99;87.49
43115;BME280;28727;50.068;14.452;2022-11-15T05:20:21;99348.91;;;4.89;87.19
43115;BME280;28727;50.068;14.452;2022-11-15T05:23:11;99340.94;;;4.91;87.46
43115;BME280;28727;50.068;14.452;2022-11-15T05:26:03;99350.25;;;4.84;87.39
43115;BME280;28727;50.068;14.452;2022-11-15T05:28:58;99334.97;;;4.79;87.53
43115;BME280;28727;50.068;14.452;2022-11-15T05:31:49;99329.34;;;4.84;88.27
43115;BME280;28727;50.068;14.452;2022-11-15T05:34:39;99323.41;;;4.82;87.99
43115;BME280;28727;50.068;14.452;2022-11-15T05:37:30;99321.34;;;4.85;88.04
43115;BME280;28727;50.068;14.452;2022-11-15T05:40:20;99326.47;;;4.87;88.15
43115;BME280;28727;50.068;14.452;2022-11-15T05:43:10;99322.91;;;4.88;87.49
43115;BME280;28727;50.068;14.452;2022-11-15T05:46:02;99314.47;;;4.84;88.30
43115;BME280;28727;50.068;14.452;2022-11-15T05:48:54;99313.78;;;4.82;87.57
43115;BME280;28727;50.068;14.452;2022-11-15T05:51:47;99313.78;;;4.82;87.96
43115;BME280;28727;50.068;14.452;2022-11-15T05:54:43;99323.41;;;4.82;87.63
43115;BME280;28727;50.068;14.452;2022-11-15T05:57:34;99323.66;;;4.79;87.96
43115;BME280;28727;50.068;14.452;2022-11-15T06:00:24;99319.28;;;4.79;87.97
43115;BME280;28727;50.068;14.452;2022-11-15T06:03:15;99325.34;;;4.80;88.15
43115;BME280;28727;50.068;14.452;2022-11-15T06:06:06;99324.25;;;4.82;88.07
43115;BME280;28727;50.068;14.452;2022-11-15T06:09:02;99327.13;;;4.89;88.14
43115;BME280;28727;50.068;14.452;2022-11-15T06:11:53;99332.00;;;4.93;88.06
43115;BME280;28727;50.068;14.452;2022-11-15T06:14:43;99333.25;;;4.99;87.83
43115;BME280;28727;50.068;14.452;2022-11-15T06:17:33;99335.16;;;4.97;87.17
43115;BME280;28727;50.068;14.452;2022-11-15T06:20:27;99332.00;;;4.93;87.51
43115;BME280;28727;50.068;14.452;2022-11-15T06:23:18;99335.88;;;4.99;87.51
43115;BME280;28727;50.068;14.452;2022-11-15T06:26:08;99340.81;;;5.02;87.09
43115;BME280;28727;50.068;14.452;2022-11-15T06:28:58;99337.06;;;4.95;86.80
43115;BME280;28727;50.068;14.452;2022-11-15T06:31:49;99330.22;;;4.94;86.81
43115;BME280;28727;50.068;14.452;2022-11-15T06:34:39;99328.44;;;4.94;87.04
43115;BME280;28727;50.068;14.452;2022-11-15T06:37:33;99334.91;;;5.00;86.77
43115;BME280;28727;50.068;14.452;2022-11-15T06:40:23;99336.53;;;5.01;86.30
43115;BME280;28727;50.068;14.452;2022-11-15T06:43:13;99330.75;;;4.98;86.66
43115;BME280;28727;50.068;14.452;2022-11-15T06:46:05;99326.75;;;4.93;86.57
43115;BME280;28727;50.068;14.452;2022-11-15T06:48:55;99332.41;;;4.99;86.42
43115;BME280;28727;50.068;14.452;2022-11-15T06:51:45;99334.63;;;5.03;86.21
43115;BME280;28727;50.068;14.452;2022-11-15T06:54:35;99329.16;;;5.06;86.11
43115;BME280;28727;50.068;14.452;2022-11-15T06:57:28;99334.94;;;5.10;85.98
43115;BME280;28727;50.068;14.452;2022-11-15T07:00:19;99329.94;;;5.07;86.00
43115;BME280;28727;50.068;14.452;2022-11-15T07:03:10;99334.63;;;5.13;86.17
43115;BME280;28727;50.068;14.452;2022-11-15T07:06:00;99331.06;;;5.14;85.96
43115;BME280;28727;50.068;14.452;2022-11-15T07:08:56;99337.00;;;5.16;86.02
43115;BME280;28727;50.068;14.452;2022-11-15T07:11:47;99337.97;;;5.15;86.65
43115;BME280;28727;50.068;14.452;2022-11-15T07:14:37;99335.09;;;5.18;86.51
43115;BME280;28727;50.068;14.452;2022-11-15T07:17:27;99347.34;;;5.27;86.47
43115;BME280;28727;50.068;14.452;2022-11-15T07:20:17;99333.03;;;5.31;86.11
43115;BME280;28727;50.068;14.452;2022-11-15T07:23:08;99329.31;;;5.33;86.02
43115;BME280;28727;50.068;14.452;2022-11-15T07:25:58;99325.75;;;5.34;85.97
43115;BME280;28727;50.068;14.452;2022-11-15T07:28:49;99335.25;;;5.35;86.00
43115;BME280;28727;50.068;14.452;2022-11-15T07:31:39;99334.72;;;5.42;85.38
43115;BME280;28727;50.068;14.452;2022-11-15T07:34:29;99334.25;;;5.36;85.49
43115;BME280;28727;50.068;14.452;2022-11-15T07:37:20;99343.50;;;5.31;85.76
43115;BME280;28727;50.068;14.452;2022-11-15T07:40:10;99338.53;;;5.28;85.78
43115;BME280;28727;50.068;14.452;2022-11-15T07:43:06;99336.47;;;5.31;85.83
43115;BME280;28727;50.068;14.452;2022-11-15T07:45:57;99333.84;;;5.31;85.41
43115;BME280;28727;50.068;14.452;2022-11-15T07:48:48;99333.44;;;5.26;85.16
43115;BME280;28727;50.068;14.452;2022-11-15T07:51:39;99345.97;;;5.23;85.24
43115;BME280;28727;50.068;14.452;2022-11-15T07:54:29;99336.63;;;5.30;85.10
43115;BME280;28727;50.068;14.452;2022-11-15T07:57:19;99330.81;;;5.36;84.84
43115;BME280;28727;50.068;14.452;2022-11-15T08:00:10;99330.03;;;5.35;84.71
43115;BME280;28727;50.068;14.452;2022-11-15T08:03:08;99321.16;;;5.36;84.81
43115;BME280;28727;50.068;14.452;2022-11-15T08:06:00;99325.31;;;5.39;84.34
43115;BME280;28727;50.068;14.452;2022-11-15T08:08:53;99322.97;;;5.36;84.33
43115;BME280;28727;50.068;14.452;2022-11-15T08:11:44;99324.78;;;5.35;84.60
43115;BME280;28727;50.068;14.452;2022-11-15T08:14:35;99327.25;;;5.37;84.34
43115;BME280;28727;50.068;14.452;2022-11-15T08:17:25;99320.91;;;5.40;84.70
43115;BME280;28727;50.068;14.452;2022-11-15T08:20:16;99315.00;;;5.47;84.23
43115;BME280;28727;50.068;14.452;2022-11-15T08:23:06;99321.19;;;5.46;84.29
43115;BME280;28727;50.068;14.452;2022-11-15T08:26:02;99322.84;;;5.38;84.31
43115;BME280;28727;50.068;14.452;2022-11-15T08:28:53;99317.31;;;5.31;85.35
43115;BME280;28727;50.068;14.452;2022-11-15T08:31:42;99318.44;;;5.38;84.78
43115;BME280;28727;50.068;14.452;2022-11-15T08:34:36;99320.91;;;5.30;85.19
43115;BME280;28727;50.068;14.452;2022-11-15T08:37:26;99314.56;;;5.32;85.29
43115;BME280;28727;50.068;14.452;2022-11-15T08:40:16;99314.00;;;5.39;85.29
43115;BME280;28727;50.068;14.452;2022-11-15T08:43:11;99309.75;;;5.47;84.85
43115;BME280;28727;50.068;14.452;2022-11-15T08:46:04;99304.66;;;5.46;85.02
43115;BME280;28727;50.068;14.452;2022-11-15T08:48:57;99298.88;;;5.52;84.88
43115;BME280;28727;50.068;14.452;2022-11-15T08:51:47;99301.47;;;5.61;84.67
43115;BME280;28727;50.068;14.452;2022-11-15T08:54:37;99297.03;;;5.71;84.01
43115;BME280;28727;50.068;14.452;2022-11-15T08:57:30;99301.19;;;5.74;83.45
43115;BME280;28727;50.068;14.452;2022-11-15T09:00:21;99304.34;;;5.77;83.28
43115;BME280;28727;50.068;14.452;2022-11-15T09:03:11;99318.72;;;5.73;83.16
43115;BME280;28727;50.068;14.452;2022-11-15T09:06:01;99305.19;;;5.68;82.78
43115;BME280;28727;50.068;14.452;2022-11-15T09:08:56;99307.41;;;5.63;83.09
43115;BME280;28727;50.068;14.452;2022-11-15T09:11:46;99307.13;;;5.66;83.21
43115;BME280;28727;50.068;14.452;2022-11-15T09:14:37;99310.56;;;5.67;82.96
43115;BME280;28727;50.068;14.452;2022-11-15T09:17:27;99307.81;;;5.68;82.76
43115;BME280;28727;50.068;14.452;2022-11-15T09:20:17;99295.41;;;5.70;82.76
43115;BME280;28727;50.068;14.452;2022-11-15T09:23:08;99297.47;;;5.67;82.82
43115;BME280;28727;50.068;14.452;2022-11-15T09:26:00;99295.00;;;5.65;82.98
43115;BME280;28727;50.068;14.452;2022-11-15T09:28:51;99291.69;;;5.63;83.16
43115;BME280;28727;50.068;14.452;2022-11-15T09:31:41;99301.34;;;5.53;82.49
43115;BME280;28727;50.068;14.452;2022-11-15T09:34:31;99293.75;;;5.60;82.75
43115;BME280;28727;50.068;14.452;2022-11-15T09:37:25;99291.25;;;5.68;82.37
43115;BME280;28727;50.068;14.452;2022-11-15T09:40:16;99289.75;;;5.75;81.45
43115;BME280;28727;50.068;14.452;2022-11-15T09:46:49;99285.22;;;5.58;81.19
43115;BME280;28727;50.068;14.452;2022-11-15T09:49:58;99286.72;;;5.60;81.78
43115;BME280;28727;50.068;14.452;2022-11-15T09:52:39;99286.16;;;5.66;81.40
43115;BME280;28727;50.068;14.452;2022-11-15T09:55:14;99293.47;;;5.63;81.43
43115;BME280;28727;50.068;14.452;2022-11-15T09:58:10;99286.72;;;5.70;81.79
43115;BME280;28727;50.068;14.452;2022-11-15T10:00:48;99288.91;;;5.84;81.36
43115;BME280;28727;50.068;14.452;2022-11-15T10:03:29;99284.91;;;5.90;81.04
43115;BME280;28727;50.068;14.452;2022-11-15T10:06:04;99278.03;;;5.89;80.44
43115;BME280;28727;50.068;14.452;2022-11-15T10:09:54;99280.38;;;5.92;80.38
43115;BME280;28727;50.068;14.452;2022-11-15T10:11:54;99273.47;;;5.91;80.32
43115;BME280;28727;50.068;14.452;2022-11-15T10:14:29;99268.22;;;5.91;80.02
43115;BME280;28727;50.068;14.452;2022-11-15T10:22:43;99271.16;;;5.88;80.28
43115;BME280;28727;50.068;14.452;2022-11-15T10:25:24;99267.53;;;5.79;80.64
43115;BME280;28727;50.068;14.452;2022-11-15T10:28:14;99267.41;;;5.81;80.53
43115;BME280;28727;50.068;14.452;2022-11-15T10:30:53;99262.59;;;5.76;80.37
43115;BME280;28727;50.068;14.452;2022-11-15T10:33:36;99258.03;;;5.68;80.89
43115;BME280;28727;50.068;14.452;2022-11-15T10:41:34;99241.63;;;5.66;80.97
43115;BME280;28727;50.068;14.452;2022-11-15T10:46:40;99243.16;;;5.59;81.45
43115;BME280;28727;50.068;14.452;2022-11-15T10:49:23;99239.97;;;5.65;81.60
43115;BME280;28727;50.068;14.452;2022-11-15T10:52:16;99239.56;;;5.70;81.10
43115;BME280;28727;50.068;14.452;2022-11-15T10:57:50;99225.22;;;5.64;81.34
43115;BME280;28727;50.068;14.452;2022-11-15T11:00:29;99222.88;;;5.61;81.29
43115;BME280;28727;50.068;14.452;2022-11-15T11:03:04;99217.22;;;5.56;81.16
43115;BME280;28727;50.068;14.452;2022-11-15T11:05:40;99209.09;;;5.59;81.46
43115;BME280;28727;50.068;14.452;2022-11-15T11:11:01;99198.66;;;5.40;81.45
43115;BME280;28727;50.068;14.452;2022-11-15T11:13:39;99196.59;;;5.34;82.15
43115;BME280;28727;50.068;14.452;2022-11-15T11:21:56;99216.56;;;5.45;81.90
43115;BME280;28727;50.068;14.452;2022-11-15T11:24:45;99207.03;;;5.53;81.71
43115;BME280;28727;50.068;14.452;2022-11-15T11:30:18;99199.03;;;5.55;81.69
43115;BME280;28727;50.068;14.452;2022-11-15T11:33:12;99190.75;;;5.59;81.40
43115;BME280;28727;50.068;14.452;2022-11-15T11:35:59;99187.06;;;5.52;81.34
43115;BME280;28727;50.068;14.452;2022-11-15T11:38:56;99196.56;;;5.44;81.44
43115;BME280;28727;50.068;14.452;2022-11-15T11:41:43;99194.25;;;5.41;81.63
43115;BME280;28727;50.068;14.452;2022-11-15T11:47:31;99171.63;;;5.40;82.00
43115;BME280;28727;50.068;14.452;2022-11-15T11:50:19;99166.09;;;5.43;81.88
43115;BME280;28727;50.068;14.452;2022-11-15T11:52:57;99159.75;;;5.45;82.10
43115;BME280;28727;50.068;14.452;2022-11-15T11:55:36;99153.13;;;5.51;82.20
43115;BME280;28727;50.068;14.452;2022-11-15T11:58:17;99149.13;;;5.56;82.26
43115;BME280;28727;50.068;14.452;2022-11-15T12:00:56;99140.69;;;5.62;81.92
43115;BME280;28727;50.068;14.452;2022-11-15T12:03:46;99145.88;;;5.72;81.52
43115;BME280;28727;50.068;14.452;2022-11-15T12:12:27;99134.53;;;5.44;81.21
43115;BME280;28727;50.068;14.452;2022-11-15T12:15:12;99136.88;;;5.38;81.57
43115;BME280;28727;50.068;14.452;2022-11-15T12:17:50;99132.22;;;5.41;81.60
43115;BME280;28727;50.068;14.452;2022-11-15T12:20:24;99125.31;;;5.40;81.70
43115;BME280;28727;50.068;14.452;2022-11-15T12:23:11;99118.28;;;5.41;81.53
43115;BME280;28727;50.068;14.452;2022-11-15T12:28:50;99114.69;;;5.42;81.71
43115;BME280;28727;50.068;14.452;2022-11-15T12:31:40;99113.56;;;5.44;82.12
43115;BME280;28727;50.068;14.452;2022-11-15T12:36:51;99104.19;;;5.51;81.29
43115;BME280;28727;50.068;14.452;2022-11-15T12:40:27;99097.09;;;5.61;81.42
43115;BME280;28727;50.068;14.452;2022-11-15T12:42:44;99095.13;;;5.73;81.10
43115;BME280;28727;50.068;14.452;2022-11-15T12:45:38;99085.22;;;5.76;80.69
43115;BME280;28727;50.068;14.452;2022-11-15T12:50:57;99083.19;;;5.61;81.98
43115;BME280;28727;50.068;14.452;2022-11-15T12:53:32;99079.84;;;5.68;81.99
43115;BME280;28727;50.068;14.452;2022-11-15T13:07:03;99061.19;;;5.71;80.36
43115;BME280;28727;50.068;14.452;2022-11-15T13:17:23;99065.41;;;5.64;80.43
43115;BME280;28727;50.068;14.452;2022-11-15T13:30:50;99056.50;;;5.75;80.56
43115;BME280;28727;50.068;14.452;2022-11-15T13:33:35;99058.41;;;5.83;80.67
43115;BME280;28727;50.068;14.452;2022-11-15T13:36:23;99049.34;;;5.77;80.48
43115;BME280;28727;50.068;14.452;2022-11-15T13:38:57;99050.78;;;5.62;80.75
43115;BME280;28727;50.068;14.452;2022-11-15T13:41:34;99045.69;;;5.60;80.95
43115;BME280;28727;50.068;14.452;2022-11-15T13:44:19;99040.59;;;5.59;80.96
43115;BME280;28727;50.068;14.452;2022-11-15T13:47:13;99043.75;;;5.62;81.23
43115;BME280;28727;50.068;14.452;2022-11-15T13:49:48;99037.53;;;5.63;81.05
43115;BME280;28727;50.068;14.452;2022-11-15T13:52:29;99029.81;;;5.62;81.32
43115;BME280;28727;50.068;14.452;2022-11-15T13:55:09;99036.72;;;5.63;81.19
43115;BME280;28727;50.068;14.452;2022-11-15T13:57:48;99031.03;;;5.67;80.99
43115;BME280;28727;50.068;14.452;2022-11-15T14:00:39;99027.59;;;5.67;80.88
43115;BME280;28727;50.068;14.452;2022-11-15T14:03:25;99025.84;;;5.58;81.08
43115;BME280;28727;50.068;14.452;2022-11-15T14:06:13;99022.53;;;5.56;81.50
43115;BME280;28727;50.068;14.452;2022-11-15T14:11:55;99011.69;;;5.51;81.53
43115;BME280;28727;50.068;14.452;2022-11-15T14:14:27;99009.19;;;5.49;81.95
43115;BME280;28727;50.068;14.452;2022-11-15T14:17:01;99000.50;;;5.49;81.92
43115;BME280;28727;50.068;14.452;2022-11-15T14:19:35;98995.97;;;5.51;81.98
43115;BME280;28727;50.068;14.452;2022-11-15T14:22:22;98986.56;;;5.58;81.82
43115;BME280;28727;50.068;14.452;2022-11-15T14:25:18;98995.31;;;5.66;81.58
43115;BME280;28727;50.068;14.452;2022-11-15T14:30:42;98997.06;;;5.75;81.52
43115;BME280;28727;50.068;14.452;2022-11-15T14:35:51;98995.09;;;5.87;81.46
43115;BME280;28727;50.068;14.452;2022-11-15T14:38:24;98992.03;;;5.92;81.31
43115;BME280;28727;50.068;14.452;2022-11-15T14:40:58;98992.53;;;5.95;81.26
43115;BME280;28727;50.068;14.452;2022-11-15T14:43:30;98988.44;;;5.93;81.11
43115;BME280;28727;50.068;14.452;2022-11-15T14:46:02;98982.81;;;5.88;81.10
43115;BME280;28727;50.068;14.452;2022-11-15T14:48:33;98975.06;;;5.86;81.30
43115;BME280;28727;50.068;14.452;2022-11-15T14:51:14;98971.06;;;5.92;81.58
43115;BME280;28727;50.068;14.452;2022-11-15T14:53:48;98971.75;;;5.94;81.33
43115;BME280;28727;50.068;14.452;2022-11-15T14:56:19;98968.31;;;5.93;81.52
43115;BME280;28727;50.068;14.452;2022-11-15T14:58:51;98971.44;;;5.97;81.47
43115;BME280;28727;50.068;14.452;2022-11-15T15:01:26;98966.06;;;5.98;81.62
43115;BME280;28727;50.068;14.452;2022-11-15T15:03:58;98964.13;;;6.00;81.62
43115;BME280;28727;50.068;14.452;2022-11-15T15:06:33;98961.88;;;6.05;81.31
43115;BME280;28727;50.068;14.452;2022-11-15T15:09:05;98964.53;;;5.96;81.36
43115;BME280;28727;50.068;14.452;2022-11-15T15:11:40;98954.56;;;5.82;82.09
43115;BME280;28727;50.068;14.452;2022-11-15T15:14:13;98959.94;;;5.80;81.92
43115;BME280;28727;50.068;14.452;2022-11-15T15:16:48;98956.13;;;5.74;82.70
43115;BME280;28727;50.068;14.452;2022-11-15T15:19:22;98956.63;;;5.78;83.00
43115;BME280;28727;50.068;14.452;2022-11-15T15:21:56;98952.44;;;5.85;82.58
43115;BME280;28727;50.068;14.452;2022-11-15T15:24:28;98943.75;;;5.85;82.09
43115;BME280;28727;50.068;14.452;2022-11-15T15:27:03;98945.91;;;5.71;82.90
43115;BME280;28727;50.068;14.452;2022-11-15T15:29:34;98949.53;;;5.70;83.51
43115;BME280;28727;50.068;14.452;2022-11-15T15:32:06;98944.34;;;5.78;83.47
43115;BME280;28727;50.068;14.452;2022-11-15T15:34:42;98940.88;;;5.88;83.08
43115;BME280;28727;50.068;14.452;2022-11-15T15:37:26;98947.19;;;5.95;83.13
43115;BME280;28727;50.068;14.452;2022-11-15T15:39:58;98939.16;;;5.96;82.64
43115;BME280;28727;50.068;14.452;2022-11-15T15:42:30;98948.81;;;5.96;82.38
43115;BME280;28727;50.068;14.452;2022-11-15T15:45:06;98943.16;;;6.00;82.58
43115;BME280;28727;50.068;14.452;2022-11-15T15:47:41;98950.56;;;6.05;82.78
43115;BME280;28727;50.068;14.452;2022-11-15T15:50:17;98935.28;;;6.00;82.45
43115;BME280;28727;50.068;14.452;2022-11-15T15:52:57;98935.94;;;6.02;82.47
43115;BME280;28727;50.068;14.452;2022-11-15T15:55:29;98944.16;;;6.07;82.35
43115;BME280;28727;50.068;14.452;2022-11-15T15:58:07;98939.75;;;6.08;82.11
43115;BME280;28727;50.068;14.452;2022-11-15T16:00:41;98945.97;;;6.07;82.07
43115;BME280;28727;50.068;14.452;2022-11-15T16:03:13;98952.84;;;6.08;82.29
43115;BME280;28727;50.068;14.452;2022-11-15T16:05:45;98955.34;;;6.09;82.38
43115;BME280;28727;50.068;14.452;2022-11-15T16:08:24;98947.00;;;6.14;82.64
43115;BME280;28727;50.068;14.452;2022-11-15T16:10:57;98941.50;;;6.17;82.30
43115;BME280;28727;50.068;14.452;2022-11-15T16:13:29;98936.38;;;6.15;82.03
43115;BME280;28727;50.068;14.452;2022-11-15T16:16:01;98938.31;;;6.13;82.38
43115;BME280;28727;50.068;14.452;2022-11-15T16:18:32;98946.03;;;6.15;81.96
43115;BME280;28727;50.068;14.452;2022-11-15T16:21:05;98935.88;;;6.12;81.95
43115;BME280;28727;50.068;14.452;2022-11-15T16:23:37;98934.72;;;6.14;82.26
43115;BME280;28727;50.068;14.452;2022-11-15T16:26:20;98939.69;;;6.18;82.19
43115;BME280;28727;50.068;14.452;2022-11-15T16:28:53;98934.09;;;6.12;82.05
43115;BME280;28727;50.068;14.452;2022-11-15T16:31:27;98935.88;;;6.12;82.37
43115;BME280;28727;50.068;14.452;2022-11-15T16:33:59;98935.41;;;6.16;82.36
43115;BME280;28727;50.068;14.452;2022-11-15T16:36:35;98934.28;;;6.19;81.86
43115;BME280;28727;50.068;14.452;2022-11-15T16:39:10;98931.38;;;6.22;82.04
43115;BME280;28727;50.068;14.452;2022-11-15T16:41:44;98924.84;;;6.08;82.15
43115;BME280;28727;50.068;14.452;2022-11-15T16:44:18;98921.56;;;6.06;82.33